Time;durP1;ratioP1;P1;durP2;ratioP2;P2;SDS_P1;SDS_P2;PMS_P1;PMS_P2;Temp;Humidity;BMP_temperature;BMP_pressure;BME280_temperature;BME280_humidity;BME280_pressure;Samples;Min_cycle;Max_cycle;Signal;HPM_P1;HPM_P2
2022/12/02 00:00:00;;;;;;;33.22;18.75;;;6.70;65.90;;;;;;4988176;28;20058;-77
2022/12/02 00:02:34;;;;;;;33.55;18.48;;;6.70;65.70;;;;;;4987268;28;20042;-77
2022/12/02 00:05:09;;;;;;;31.88;18.20;;;6.70;65.70;;;;;;4987603;28;20062;-77
2022/12/02 00:07:36;;;;;;;30.17;17.70;;;6.70;66.00;;;;;;4987919;28;20030;-78
2022/12/02 00:10:24;;;;;;;31.15;18.75;;;6.70;66.00;;;;;;4987174;28;20070;-78
2022/12/02 00:12:51;;;;;;;33.17;19.00;;;6.70;66.00;;;;;;4992162;28;20045;-78
2022/12/02 00:15:37;;;;;;;33.10;20.48;;;6.70;65.90;;;;;;4997004;28;20026;-78
2022/12/02 00:18:04;;;;;;;31.08;18.10;;;6.70;66.00;;;;;;4986336;28;20030;-77
2022/12/02 00:20:29;;;;;;;32.85;19.20;;;6.70;65.90;;;;;;4983763;28;20406;-77
2022/12/02 00:22:55;;;;;;;31.83;18.92;;;6.70;65.90;;;;;;4988207;28;20035;-77
2022/12/02 00:25:21;;;;;;;31.52;19.33;;;6.70;65.90;;;;;;4987221;28;21477;-77
2022/12/02 00:27:47;;;;;;;30.42;19.25;;;6.70;65.90;;;;;;4987102;28;20170;-77
2022/12/02 00:30:13;;;;;;;31.70;18.67;;;6.70;65.80;;;;;;4954566;28;20454;-79
2022/12/02 00:32:39;;;;;;;29.40;18.40;;;6.70;65.90;;;;;;4987105;28;20457;-79
2022/12/02 00:35:06;;;;;;;31.00;18.65;;;6.70;65.90;;;;;;4970182;28;20034;-78
2022/12/02 00:37:31;;;;;;;34.15;19.85;;;6.70;65.90;;;;;;4971858;28;20358;-79
2022/12/02 00:39:58;;;;;;;31.08;18.42;;;6.70;65.70;;;;;;4970239;28;20879;-78
2022/12/02 00:42:24;;;;;;;33.42;19.45;;;6.70;65.70;;;;;;4986853;28;20050;-78
2022/12/02 00:47:35;;;;;;;31.73;18.48;;;6.70;65.70;;;;;;4983583;28;20046;-77
2022/12/02 00:50:01;;;;;;;31.98;18.85;;;6.70;65.50;;;;;;4986394;28;20030;-77
2022/12/02 00:52:27;;;;;;;33.90;20.35;;;6.70;65.50;;;;;;4987337;28;20026;-77
2022/12/02 00:54:53;;;;;;;30.85;19.48;;;6.70;65.50;;;;;;4986281;28;20042;-77
2022/12/02 00:57:19;;;;;;;32.58;20.05;;;6.70;65.50;;;;;;4988231;28;20034;-77
2022/12/02 00:59:44;;;;;;;32.05;19.85;;;6.70;65.70;;;;;;4970186;28;20461;-77
2022/12/02 01:02:11;;;;;;;31.48;18.77;;;6.70;65.70;;;;;;4984393;28;20088;-77
2022/12/02 01:04:37;;;;;;;33.90;19.75;;;6.70;65.50;;;;;;4970694;28;20042;-78
2022/12/02 01:07:03;;;;;;;33.67;19.27;;;6.70;65.70;;;;;;4985944;28;20034;-77
2022/12/02 01:09:29;;;;;;;37.75;19.60;;;6.70;65.70;;;;;;4987114;28;20069;-76
2022/12/02 01:11:55;;;;;;;33.65;19.58;;;6.70;65.80;;;;;;4965187;28;20066;-76
2022/12/02 01:14:21;;;;;;;33.00;19.98;;;6.70;65.70;;;;;;4982112;28;20522;-76
2022/12/02 01:16:47;;;;;;;29.60;18.23;;;6.70;65.70;;;;;;4999924;28;20496;-76
2022/12/02 01:19:13;;;;;;;31.40;19.58;;;6.70;65.90;;;;;;4985577;28;20498;-77
2022/12/02 01:21:39;;;;;;;29.83;18.33;;;6.70;65.70;;;;;;4984401;28;20058;-77
2022/12/02 01:24:06;;;;;;;30.50;18.42;;;6.70;65.70;;;;;;4985461;28;20038;-77
2022/12/02 01:26:32;;;;;;;30.35;18.13;;;6.70;65.60;;;;;;4983934;28;20031;-78
2022/12/02 01:28:58;;;;;;;31.05;19.02;;;6.70;65.60;;;;;;4986232;28;20045;-77
2022/12/02 01:31:25;;;;;;;28.50;17.40;;;6.70;65.60;;;;;;5001686;28;20840;-77
2022/12/02 01:33:51;;;;;;;32.47;17.52;;;6.70;65.50;;;;;;5015151;28;20580;-77
2022/12/02 01:36:17;;;;;;;31.75;18.90;;;6.70;65.60;;;;;;5005731;28;20496;-77
2022/12/02 01:38:43;;;;;;;36.28;19.75;;;6.80;65.70;;;;;;4985051;28;20038;-77
2022/12/02 01:41:09;;;;;;;34.05;18.83;;;6.70;65.60;;;;;;4993342;28;20053;-78
2022/12/02 01:43:35;;;;;;;28.67;17.27;;;6.70;65.60;;;;;;4970313;28;20038;-78
2022/12/02 01:46:02;;;;;;;26.33;17.17;;;6.70;65.60;;;;;;4986021;28;20038;-78
2022/12/02 01:48:29;;;;;;;31.42;18.45;;;6.70;65.50;;;;;;4983187;28;20041;-78
2022/12/02 01:50:55;;;;;;;30.67;18.80;;;6.70;65.50;;;;;;4967302;28;20057;-77
2022/12/02 01:53:21;;;;;;;31.55;18.27;;;6.70;65.20;;;;;;4985221;28;20041;-77
2022/12/02 01:55:47;;;;;;;31.00;18.90;;;6.70;65.20;;;;;;4986241;28;20065;-77
2022/12/02 01:58:14;;;;;;;30.50;19.35;;;6.70;65.20;;;;;;4986460;28;20043;-76
2022/12/02 02:00:40;;;;;;;30.13;18.90;;;6.80;65.20;;;;;;4997366;28;20034;-76
2022/12/02 02:03:06;;;;;;;32.90;19.02;;;6.70;65.30;;;;;;4988413;28;20694;-77
2022/12/02 02:05:33;;;;;;;32.10;19.15;;;6.80;65.50;;;;;;5005558;28;20030;-79
2022/12/02 02:08:06;;;;;;;30.98;19.33;;;6.70;65.40;;;;;;4985518;28;20136;-78
2022/12/02 02:10:33;;;;;;;35.72;20.88;;;6.70;65.50;;;;;;5003096;28;20068;-78
2022/12/02 02:13:00;;;;;;;32.72;19.95;;;6.70;65.50;;;;;;5000655;28;20030;-82
2022/12/02 02:15:27;;;;;;;33.45;21.00;;;6.70;65.30;;;;;;5006191;28;20026;-83
2022/12/02 02:17:57;;;;;;;32.72;20.48;;;6.70;65.30;;;;;;4976338;28;20121;-82
2022/12/02 02:20:25;;;;;;;33.42;21.30;;;6.80;65.30;;;;;;4983914;28;20039;-83
2022/12/02 02:23:04;;;;;;;31.05;20.65;;;6.80;65.40;;;;;;4969318;28;20026;-79
2022/12/02 02:25:41;;;;;;;34.50;21.02;;;6.70;65.30;;;;;;5001428;28;20563;-79
2022/12/02 02:28:08;;;;;;;33.13;20.08;;;6.80;65.30;;;;;;4983310;28;20041;-79
2022/12/02 02:30:35;;;;;;;30.50;19.83;;;6.80;65.40;;;;;;4984547;28;20149;-80
2022/12/02 02:33:04;;;;;;;34.33;20.75;;;6.80;65.40;;;;;;5005640;28;20038;-78
2022/12/02 02:35:33;;;;;;;32.60;20.33;;;6.80;65.30;;;;;;5003814;28;20030;-78
2022/12/02 02:37:59;;;;;;;34.15;20.45;;;6.80;65.20;;;;;;4966155;28;20482;-78
2022/12/02 02:40:27;;;;;;;33.28;19.83;;;6.70;65.10;;;;;;4985314;28;20060;-77
2022/12/02 02:42:59;;;;;;;33.95;21.30;;;6.80;65.10;;;;;;4985533;28;20038;-78
2022/12/02 02:45:27;;;;;;;35.25;20.60;;;6.80;65.10;;;;;;5003030;28;20042;-77
2022/12/02 02:47:54;;;;;;;31.58;19.80;;;6.80;65.10;;;;;;5006138;28;20057;-79
2022/12/02 02:50:23;;;;;;;33.85;20.65;;;6.80;65.10;;;;;;5002694;28;20046;-79
2022/12/02 02:52:50;;;;;;;30.58;19.63;;;6.80;65.00;;;;;;5005564;28;20041;-78
2022/12/02 02:55:22;;;;;;;33.53;20.15;;;6.80;64.90;;;;;;4982382;28;20042;-77
2022/12/02 02:57:49;;;;;;;35.85;21.02;;;6.80;64.90;;;;;;5010868;28;20041;-77
2022/12/02 03:00:17;;;;;;;35.38;20.67;;;6.80;64.90;;;;;;4980529;28;20088;-76
2022/12/02 03:02:45;;;;;;;33.35;20.80;;;6.80;64.80;;;;;;4984709;28;20430;-76
2022/12/02 03:05:12;;;;;;;31.55;19.88;;;6.80;64.90;;;;;;5005205;28;20073;-77
2022/12/02 03:07:38;;;;;;;34.53;20.02;;;6.80;65.00;;;;;;4991607;28;20030;-76
2022/12/02 03:10:05;;;;;;;33.70;19.05;;;6.80;65.10;;;;;;4989131;28;20046;-77
2022/12/02 03:12:32;;;;;;;34.80;19.88;;;6.80;65.10;;;;;;4990580;28;20041;-77
2022/12/02 03:14:59;;;;;;;31.83;19.83;;;6.80;65.00;;;;;;4990103;28;20417;-77
2022/12/02 03:17:25;;;;;;;33.00;20.45;;;6.80;65.00;;;;;;4988415;28;20121;-79
2022/12/02 03:19:51;;;;;;;34.83;20.80;;;6.80;64.90;;;;;;4990852;28;20383;-78
2022/12/02 03:22:17;;;;;;;33.83;19.17;;;6.80;65.00;;;;;;4988508;28;20128;-78
2022/12/02 03:24:43;;;;;;;33.75;20.13;;;6.80;65.00;;;;;;4989982;28;20441;-78
2022/12/02 03:27:09;;;;;;;34.58;20.58;;;6.80;65.00;;;;;;4988555;28;20039;-78
2022/12/02 03:29:36;;;;;;;36.63;21.77;;;6.80;64.80;;;;;;4989364;28;20428;-78
2022/12/02 03:32:02;;;;;;;34.53;20.83;;;6.80;64.70;;;;;;4989998;28;20038;-77
2022/12/02 03:34:29;;;;;;;34.10;20.42;;;6.80;64.60;;;;;;4989211;28;20038;-77
2022/12/02 03:36:57;;;;;;;31.13;19.67;;;6.80;64.60;;;;;;4972510;28;20093;-77
2022/12/02 03:39:23;;;;;;;35.47;20.70;;;6.80;64.50;;;;;;4989939;28;20107;-78
2022/12/02 03:41:49;;;;;;;32.45;19.92;;;6.80;64.40;;;;;;4990470;28;20038;-78
2022/12/02 03:44:15;;;;;;;32.55;19.88;;;6.80;64.20;;;;;;4988684;28;20062;-78
2022/12/02 03:46:43;;;;;;;33.83;20.85;;;6.90;65.00;;;;;;4990450;28;20045;-76
2022/12/02 03:49:10;;;;;;;32.28;19.95;;;6.80;64.20;;;;;;4985769;28;20633;-78
2022/12/02 03:51:36;;;;;;;35.67;20.85;;;6.80;64.20;;;;;;4989566;28;20178;-77
2022/12/02 03:54:02;;;;;;;33.33;20.58;;;6.80;64.10;;;;;;4989149;28;20543;-77
2022/12/02 03:56:28;;;;;;;34.28;20.50;;;6.80;64.10;;;;;;4985702;28;20129;-78
2022/12/02 03:58:54;;;;;;;34.30;19.42;;;6.80;63.90;;;;;;4989902;28;20041;-78
2022/12/02 04:01:22;;;;;;;35.50;20.42;;;6.80;63.90;;;;;;4986943;28;20030;-79
2022/12/02 04:03:48;;;;;;;33.70;19.08;;;6.80;64.00;;;;;;4989479;28;20121;-79
2022/12/02 04:06:14;;;;;;;32.45;19.90;;;6.80;64.00;;;;;;4985877;28;20069;-79
2022/12/02 04:08:40;;;;;;;32.22;20.92;;;6.80;63.90;;;;;;4998817;28;20086;-78
2022/12/02 04:11:06;;;;;;;31.13;19.08;;;6.80;64.20;;;;;;4987313;28;20042;-78
2022/12/02 04:13:32;;;;;;;29.45;19.05;;;6.80;64.20;;;;;;4988307;28;20026;-79
2022/12/02 04:15:58;;;;;;;32.08;19.58;;;6.80;64.30;;;;;;5000383;28;20132;-78
2022/12/02 04:18:24;;;;;;;33.92;19.65;;;6.80;64.20;;;;;;5007264;28;20124;-78
2022/12/02 04:20:50;;;;;;;30.52;18.70;;;6.80;64.40;;;;;;4998029;28;20030;-78
2022/12/02 04:23:16;;;;;;;31.58;18.52;;;6.80;64.20;;;;;;4990557;28;20132;-78
2022/12/02 04:25:42;;;;;;;29.90;18.80;;;6.80;64.10;;;;;;5007085;28;20148;-77
2022/12/02 04:28:08;;;;;;;30.20;18.58;;;6.80;64.10;;;;;;5008581;28;20121;-78
2022/12/02 04:30:34;;;;;;;31.10;18.40;;;6.80;64.00;;;;;;5006699;28;20164;-78
2022/12/02 04:33:00;;;;;;;30.55;18.75;;;6.80;64.00;;;;;;4996124;28;20089;-78
2022/12/02 04:35:27;;;;;;;29.27;18.42;;;6.80;63.90;;;;;;4986793;28;20433;-78
2022/12/02 04:37:54;;;;;;;32.35;18.75;;;6.80;63.80;;;;;;4987909;28;20490;-76
2022/12/02 04:40:21;;;;;;;34.60;20.50;;;6.80;63.70;;;;;;4988538;28;20469;-77
2022/12/02 04:42:48;;;;;;;27.92;18.20;;;6.80;63.60;;;;;;4986962;28;20042;-77
2022/12/02 04:45:14;;;;;;;30.63;18.50;;;6.90;63.60;;;;;;4987817;28;20101;-78
2022/12/02 04:47:40;;;;;;;31.63;18.70;;;6.80;63.50;;;;;;4988107;28;20474;-77
2022/12/02 04:50:07;;;;;;;36.60;19.65;;;6.80;63.40;;;;;;4988898;28;20050;-78
2022/12/02 04:52:33;;;;;;;31.70;19.83;;;6.80;63.50;;;;;;4989804;28;20627;-78
2022/12/02 04:54:59;;;;;;;35.60;19.75;;;6.90;63.60;;;;;;4985496;28;20125;-78
2022/12/02 04:57:25;;;;;;;34.08;19.10;;;6.80;63.50;;;;;;4988502;28;20047;-79
2022/12/02 04:59:51;;;;;;;34.38;20.00;;;6.80;63.40;;;;;;4986672;28;20120;-77
2022/12/02 05:02:17;;;;;;;33.63;18.85;;;6.80;63.40;;;;;;4986727;28;20549;-78
2022/12/02 05:04:43;;;;;;;34.10;19.63;;;6.80;63.30;;;;;;4986860;28;20058;-77
2022/12/02 05:07:09;;;;;;;33.72;19.88;;;6.80;63.30;;;;;;4987845;28;20038;-78
2022/12/02 05:09:35;;;;;;;34.00;19.08;;;6.80;63.30;;;;;;4988580;28;20046;-78
2022/12/02 05:12:01;;;;;;;32.85;18.73;;;6.80;63.40;;;;;;4988056;28;20117;-79
2022/12/02 05:14:27;;;;;;;34.28;20.23;;;6.80;63.70;;;;;;4983395;28;20034;-78
2022/12/02 05:16:53;;;;;;;31.98;17.95;;;6.80;63.60;;;;;;4988456;28;20410;-77
2022/12/02 05:19:19;;;;;;;30.23;18.15;;;6.80;63.80;;;;;;4986508;28;20034;-77
2022/12/02 05:21:45;;;;;;;31.42;19.30;;;6.80;63.80;;;;;;4996980;28;20034;-77
2022/12/02 05:24:11;;;;;;;31.67;18.08;;;6.80;63.80;;;;;;4983477;28;20030;-77
2022/12/02 05:26:37;;;;;;;29.35;18.58;;;6.80;63.70;;;;;;4989522;28;20379;-77
2022/12/02 05:29:03;;;;;;;33.25;18.45;;;6.90;63.70;;;;;;4995110;28;20042;-77
2022/12/02 05:31:29;;;;;;;30.10;17.80;;;6.80;63.70;;;;;;4986659;28;20121;-77
2022/12/02 05:33:55;;;;;;;30.85;18.75;;;6.80;63.60;;;;;;4987484;28;20486;-76
2022/12/02 05:36:21;;;;;;;35.13;19.02;;;6.80;63.60;;;;;;4987930;28;20121;-77
2022/12/02 05:38:47;;;;;;;32.17;18.85;;;6.80;63.60;;;;;;4970348;28;20038;-77
2022/12/02 05:41:13;;;;;;;31.20;18.77;;;6.80;63.60;;;;;;4987385;28;20124;-77
2022/12/02 05:43:41;;;;;;;28.02;17.60;;;6.80;63.50;;;;;;4984827;28;20030;-77
2022/12/02 05:46:13;;;;;;;31.88;18.20;;;6.90;63.50;;;;;;4986986;28;20088;-76
2022/12/02 05:48:40;;;;;;;33.10;19.42;;;6.80;63.30;;;;;;4987639;28;20031;-76
2022/12/02 05:51:14;;;;;;;30.45;18.55;;;6.80;63.30;;;;;;4982945;28;20084;-77
2022/12/02 05:53:42;;;;;;;31.45;18.55;;;6.80;63.20;;;;;;4985627;28;20121;-78
2022/12/02 05:56:20;;;;;;;30.08;17.90;;;6.80;63.20;;;;;;4985350;28;20034;-77
2022/12/02 05:58:46;;;;;;;31.75;18.30;;;6.80;63.20;;;;;;5004693;28;20994;-77
2022/12/02 06:01:37;;;;;;;32.13;19.50;;;6.90;63.20;;;;;;4985385;28;20095;-78
2022/12/02 06:04:31;;;;;;;31.08;18.00;;;6.80;63.00;;;;;;4979580;28;20035;-78
2022/12/02 06:07:00;;;;;;;30.70;18.88;;;6.80;63.10;;;;;;4984244;28;20080;-78
2022/12/02 06:09:32;;;;;;;29.52;18.52;;;6.80;63.00;;;;;;5005548;28;20030;-77
2022/12/02 06:12:00;;;;;;;31.00;18.13;;;6.90;63.00;;;;;;4973249;28;20038;-77
2022/12/02 06:14:32;;;;;;;32.78;19.33;;;6.90;62.90;;;;;;5005182;28;20073;-77
2022/12/02 06:17:00;;;;;;;31.52;18.90;;;6.80;62.90;;;;;;5004910;28;20034;-78
2022/12/02 06:19:45;;;;;;;31.48;18.38;;;6.90;63.10;;;;;;5005588;28;20054;-77
2022/12/02 06:22:31;;;;;;;30.33;18.07;;;6.90;63.10;;;;;;5005447;28;20034;-78
2022/12/02 06:25:00;;;;;;;30.83;17.48;;;6.90;63.10;;;;;;5004275;28;20030;-78
2022/12/02 06:27:28;;;;;;;31.05;18.70;;;6.90;63.20;;;;;;5000725;28;20042;-78
2022/12/02 06:30:00;;;;;;;32.80;19.13;;;6.90;63.10;;;;;;4984505;28;20065;-77
2022/12/02 06:32:41;;;;;;;31.00;18.10;;;6.90;63.00;;;;;;4985387;28;20045;-77
2022/12/02 06:35:26;;;;;;;33.13;18.67;;;6.90;62.90;;;;;;4985418;28;20121;-77
2022/12/02 06:38:10;;;;;;;30.77;19.00;;;7.00;63.00;;;;;;4985373;28;20069;-78
2022/12/02 06:40:36;;;;;;;30.85;18.02;;;7.00;62.90;;;;;;5003262;28;20057;-78
2022/12/02 06:43:14;;;;;;;32.28;18.80;;;6.90;62.80;;;;;;4987424;28;20420;-78
2022/12/02 06:45:41;;;;;;;30.48;19.15;;;6.90;62.70;;;;;;4988229;28;20049;-77
2022/12/02 06:48:28;;;;;;;32.30;18.52;;;7.00;62.80;;;;;;4982545;28;20513;-79
2022/12/02 06:50:56;;;;;;;31.80;18.45;;;7.00;62.70;;;;;;4979753;28;20736;-78
2022/12/02 06:53:34;;;;;;;33.85;19.23;;;7.00;62.60;;;;;;4984977;28;20770;-80
2022/12/02 06:56:13;;;;;;;30.75;19.67;;;7.00;62.60;;;;;;4991444;28;20049;-79
2022/12/02 06:58:45;;;;;;;31.67;19.00;;;7.00;62.50;;;;;;4987384;28;20763;-79
2022/12/02 07:01:26;;;;;;;33.45;20.08;;;7.00;62.50;;;;;;5003939;28;20030;-78
2022/12/02 07:04:32;;;;;;;32.63;20.25;;;7.00;62.30;;;;;;5006664;28;20129;-79
2022/12/02 07:07:10;;;;;;;36.13;21.00;;;7.00;62.30;;;;;;4985861;28;20042;-78
2022/12/02 07:09:44;;;;;;;35.35;20.75;;;7.00;62.20;;;;;;4987727;28;20736;-79
2022/12/02 07:12:17;;;;;;;34.75;20.98;;;7.10;62.10;;;;;;4984168;28;20663;-79
2022/12/02 07:14:48;;;;;;;34.30;20.60;;;7.10;62.10;;;;;;4981527;28;20740;-79
2022/12/02 07:17:34;;;;;;;36.03;20.92;;;7.10;62.10;;;;;;4982479;28;20057;-81
2022/12/02 07:20:07;;;;;;;37.75;20.92;;;7.10;61.90;;;;;;4982728;28;20042;-79
2022/12/02 07:22:47;;;;;;;34.70;20.02;;;7.10;62.00;;;;;;4982798;28;20512;-79
2022/12/02 07:25:28;;;;;;;32.47;20.15;;;7.10;62.20;;;;;;4987184;28;20509;-79
2022/12/02 07:27:54;;;;;;;33.47;20.00;;;7.10;62.30;;;;;;4987715;28;20046;-80
2022/12/02 07:30:31;;;;;;;38.88;21.50;;;7.20;62.20;;;;;;4989293;28;20112;-76
2022/12/02 07:32:58;;;;;;;38.97;23.25;;;7.20;61.10;;;;;;4988008;28;20046;-77
2022/12/02 07:35:24;;;;;;;39.58;22.67;;;7.10;58.20;;;;;;4984894;28;20437;-79
2022/12/02 07:37:51;;;;;;;35.25;21.10;;;7.00;60.00;;;;;;4989721;28;20521;-80
2022/12/02 07:40:18;;;;;;;37.05;21.92;;;7.00;60.70;;;;;;4987989;28;20517;-79
2022/12/02 07:42:44;;;;;;;33.72;19.80;;;7.10;61.30;;;;;;4989808;28;20367;-80
2022/12/02 07:45:11;;;;;;;34.10;20.83;;;7.10;61.30;;;;;;4989354;28;20049;-82
2022/12/02 07:47:37;;;;;;;37.20;21.10;;;7.10;60.70;;;;;;4989843;28;20137;-80
2022/12/02 07:50:05;;;;;;;33.58;19.55;;;7.20;60.40;;;;;;4992252;28;20046;-79
2022/12/02 07:52:31;;;;;;;32.28;19.63;;;7.20;60.30;;;;;;4994666;28;20114;-78
2022/12/02 07:54:57;;;;;;;33.78;20.52;;;7.20;60.00;;;;;;4991385;28;20128;-79
2022/12/02 07:57:23;;;;;;;34.90;20.27;;;7.30;59.80;;;;;;4992460;28;20077;-75
2022/12/02 07:59:49;;;;;;;35.08;20.88;;;7.30;59.60;;;;;;4993324;28;20038;-74
2022/12/02 08:02:15;;;;;;;35.20;20.80;;;7.30;59.60;;;;;;4992308;28;20100;-74
2022/12/02 08:04:41;;;;;;;34.17;20.25;;;7.30;59.50;;;;;;4993829;28;20030;-74
2022/12/02 08:07:07;;;;;;;35.63;20.85;;;7.30;59.40;;;;;;4984101;28;20050;-78
2022/12/02 08:09:33;;;;;;;37.00;21.02;;;7.30;59.60;;;;;;4989803;28;20482;-77
2022/12/02 08:11:59;;;;;;;32.78;20.52;;;7.30;59.60;;;;;;4990658;28;20043;-77
2022/12/02 08:14:25;;;;;;;38.42;20.55;;;7.30;59.80;;;;;;4992337;28;20034;-76
2022/12/02 08:16:50;;;;;;;35.35;21.05;;;7.30;59.60;;;;;;4993658;28;20367;-74
2022/12/02 08:19:16;;;;;;;41.22;21.27;;;7.30;59.70;;;;;;4991571;28;20137;-74
2022/12/02 08:21:42;;;;;;;35.13;21.10;;;7.30;59.90;;;;;;4993178;28;20034;-77
2022/12/02 08:24:08;;;;;;;34.95;19.63;;;7.40;59.90;;;;;;4991413;28;20041;-76
2022/12/02 08:26:35;;;;;;;33.78;20.35;;;7.40;59.80;;;;;;4983607;28;20049;-76
2022/12/02 08:29:02;;;;;;;34.63;20.15;;;7.40;59.90;;;;;;4994129;28;20489;-77
2022/12/02 08:31:28;;;;;;;38.97;19.85;;;7.40;60.00;;;;;;4985826;28;20041;-77
2022/12/02 08:33:54;;;;;;;34.45;19.33;;;7.40;60.10;;;;;;4987449;28;20031;-76
2022/12/02 08:36:21;;;;;;;33.22;19.85;;;7.40;60.10;;;;;;4990313;28;20128;-77
2022/12/02 08:38:48;;;;;;;34.50;19.65;;;7.40;60.10;;;;;;4987273;28;20045;-76
2022/12/02 08:41:14;;;;;;;33.53;19.30;;;7.40;60.10;;;;;;4990352;28;20046;-77
2022/12/02 08:43:41;;;;;;;32.55;19.23;;;7.40;60.10;;;;;;4986987;28;20140;-76
2022/12/02 08:46:07;;;;;;;32.45;19.40;;;7.40;60.00;;;;;;5007020;28;20041;-75
2022/12/02 08:48:33;;;;;;;32.20;19.80;;;7.40;59.90;;;;;;4991222;28;20057;-76
2022/12/02 08:51:00;;;;;;;39.13;20.98;;;7.40;59.80;;;;;;4991547;28;20510;-75
2022/12/02 08:53:25;;;;;;;34.90;21.45;;;7.40;59.70;;;;;;4987471;28;20549;-76
2022/12/02 08:55:51;;;;;;;31.45;19.25;;;7.40;59.70;;;;;;4992131;28;20136;-75
2022/12/02 08:58:17;;;;;;;31.38;18.98;;;7.40;59.70;;;;;;4973366;28;20038;-75
2022/12/02 09:00:43;;;;;;;30.35;18.67;;;7.50;59.80;;;;;;4992053;28;20130;-76
2022/12/02 09:03:10;;;;;;;34.05;20.25;;;7.50;59.90;;;;;;4985896;28;20042;-76
2022/12/02 09:05:37;;;;;;;32.97;20.20;;;7.40;60.00;;;;;;4989668;28;20038;-76
2022/12/02 09:08:04;;;;;;;31.95;20.02;;;7.50;59.90;;;;;;4989648;28;20038;-76
2022/12/02 09:10:30;;;;;;;29.35;18.67;;;7.50;59.90;;;;;;4974820;28;20031;-75
2022/12/02 09:12:56;;;;;;;34.30;19.40;;;7.50;59.90;;;;;;4991787;28;20825;-76
2022/12/02 09:15:23;;;;;;;32.75;19.85;;;7.50;59.80;;;;;;4971108;28;20802;-75
2022/12/02 09:17:49;;;;;;;30.92;18.92;;;7.50;59.90;;;;;;4989998;28;20033;-76
2022/12/02 09:20:16;;;;;;;31.08;18.60;;;7.50;59.90;;;;;;4972584;28;20409;-76
2022/12/02 09:22:45;;;;;;;31.30;18.58;;;7.50;59.90;;;;;;4985563;28;20129;-77
2022/12/02 09:25:12;;;;;;;32.67;18.45;;;7.50;59.90;;;;;;4985688;28;20136;-76
2022/12/02 09:27:39;;;;;;;30.52;18.10;;;7.50;59.90;;;;;;4985617;28;20041;-75
2022/12/02 09:30:06;;;;;;;30.25;17.48;;;7.50;60.00;;;;;;4987126;28;20516;-78
2022/12/02 09:32:33;;;;;;;30.83;18.30;;;7.50;60.10;;;;;;4986669;28;20410;-79
2022/12/02 09:34:59;;;;;;;29.00;17.45;;;7.50;60.30;;;;;;4968644;28;20536;-77
2022/12/02 09:37:24;;;;;;;29.17;16.40;;;7.50;60.30;;;;;;4986891;28;20038;-80
2022/12/02 09:39:50;;;;;;;28.00;17.17;;;7.50;60.70;;;;;;4981556;28;20457;-81
2022/12/02 09:42:17;;;;;;;28.42;17.10;;;7.60;60.90;;;;;;4968753;28;20540;-81
2022/12/02 09:44:44;;;;;;;27.20;17.60;;;7.50;61.00;;;;;;4982421;28;20066;-80
2022/12/02 09:47:12;;;;;;;27.77;17.05;;;7.60;61.00;;;;;;4982198;28;20112;-79
2022/12/02 09:49:38;;;;;;;26.17;16.85;;;7.60;61.20;;;;;;4982448;28;20026;-79
2022/12/02 09:52:12;;;;;;;26.65;16.38;;;7.60;61.50;;;;;;4983206;28;20520;-80
2022/12/02 09:54:38;;;;;;;26.40;16.67;;;7.60;61.50;;;;;;4964826;28;20043;-79
2022/12/02 09:57:16;;;;;;;30.35;17.00;;;7.60;61.60;;;;;;4980893;28;20065;-78
2022/12/02 09:59:43;;;;;;;29.20;17.83;;;7.60;61.90;;;;;;4985788;28;20030;-78
2022/12/02 10:02:38;;;;;;;26.00;17.17;;;7.60;61.90;;;;;;4970261;28;20034;-80
2022/12/02 10:05:17;;;;;;;30.50;17.05;;;7.60;62.30;;;;;;4982708;28;20058;-80
2022/12/02 10:07:44;;;;;;;30.33;17.17;;;7.60;62.40;;;;;;4987309;28;20540;-84
2022/12/02 10:10:17;;;;;;;32.42;17.90;;;7.60;62.70;;;;;;4988504;28;20514;-80
2022/12/02 10:12:43;;;;;;;31.38;17.40;;;7.70;62.80;;;;;;4987977;28;20057;-81
2022/12/02 10:15:13;;;;;;;31.20;17.25;;;7.70;62.90;;;;;;4988472;28;20091;-81
2022/12/02 10:17:39;;;;;;;25.77;16.83;;;7.60;62.90;;;;;;4986232;28;20041;-81
2022/12/02 10:20:06;;;;;;;26.27;16.30;;;7.70;63.00;;;;;;4984926;28;20066;-82
2022/12/02 10:22:32;;;;;;;25.70;16.60;;;7.70;63.10;;;;;;4967751;28;20473;-83
2022/12/02 10:24:58;;;;;;;27.60;16.00;;;7.70;63.30;;;;;;4951564;28;20065;-80
2022/12/02 10:27:25;;;;;;;25.65;15.73;;;7.60;63.20;;;;;;4983579;28;20224;-82
2022/12/02 10:29:52;;;;;;;24.60;15.90;;;7.70;63.20;;;;;;4951650;28;20030;-85
2022/12/02 10:32:23;;;;;;;27.77;16.58;;;7.70;63.20;;;;;;4997129;28;20035;-83
2022/12/02 10:35:09;;;;;;;26.23;16.33;;;7.70;63.40;;;;;;4964129;28;20026;-83
2022/12/02 10:37:36;;;;;;;27.63;16.65;;;7.70;63.70;;;;;;4968858;28;20046;-81
2022/12/02 10:40:07;;;;;;;25.58;16.00;;;7.70;64.00;;;;;;4967685;28;20051;-81
2022/12/02 10:42:34;;;;;;;26.80;16.23;;;7.70;64.00;;;;;;4984966;28;20053;-84
2022/12/02 10:45:15;;;;;;;27.75;16.90;;;7.80;64.20;;;;;;4953831;28;20085;-82
2022/12/02 10:47:41;;;;;;;27.42;17.05;;;7.70;64.50;;;;;;4980399;28;20089;-80
2022/12/02 10:50:15;;;;;;;28.05;16.83;;;7.80;64.80;;;;;;4983675;28;20038;-80
2022/12/02 10:52:56;;;;;;;27.23;16.27;;;7.80;64.50;;;;;;4991155;28;20034;-81
2022/12/02 10:55:22;;;;;;;29.80;16.33;;;7.80;64.60;;;;;;4987605;28;20452;-81
2022/12/02 10:57:49;;;;;;;26.60;16.58;;;7.80;64.60;;;;;;4990407;28;20505;-81
2022/12/02 11:00:24;;;;;;;24.80;15.88;;;7.80;64.50;;;;;;4985819;28;20057;-81
2022/12/02 11:02:55;;;;;;;25.52;16.27;;;7.80;64.50;;;;;;4950433;28;20038;-85
2022/12/02 11:05:34;;;;;;;24.17;15.18;;;7.80;64.40;;;;;;4983114;28;20038;-85
2022/12/02 11:08:05;;;;;;;27.92;15.82;;;7.80;64.30;;;;;;4969500;28;20049;-83
2022/12/02 11:10:37;;;;;;;26.90;16.75;;;7.80;64.30;;;;;;4985438;28;20541;-86
2022/12/02 11:13:11;;;;;;;30.58;16.80;;;7.80;64.10;;;;;;4969315;28;20596;-85
2022/12/02 11:15:49;;;;;;;27.52;15.43;;;7.80;64.20;;;;;;4970225;28;20509;-86
2022/12/02 11:18:24;;;;;;;28.05;16.50;;;7.80;64.20;;;;;;4985863;28;20039;-88
2022/12/02 11:21:00;;;;;;;25.80;16.05;;;7.90;64.30;;;;;;4954551;28;20057;-84
2022/12/02 11:23:30;;;;;;;25.35;15.75;;;7.90;64.50;;;;;;4986526;28;20129;-84
2022/12/02 11:26:03;;;;;;;25.35;16.25;;;7.90;64.50;;;;;;4973146;28;20189;-87
2022/12/02 11:28:28;;;;;;;25.13;15.90;;;7.90;64.50;;;;;;4989633;28;20410;-85
2022/12/02 11:31:10;;;;;;;26.58;15.40;;;7.80;64.40;;;;;;4987118;28;20042;-86
2022/12/02 11:34:00;;;;;;;24.95;15.32;;;7.80;64.40;;;;;;4987383;28;20513;-85
2022/12/02 11:36:32;;;;;;;26.25;15.77;;;7.90;64.50;;;;;;4977908;28;20038;-86
2022/12/02 11:39:07;;;;;;;23.83;15.93;;;7.90;64.80;;;;;;4985283;28;20038;-85
2022/12/02 11:41:48;;;;;;;29.27;16.33;;;7.90;64.90;;;;;;4971956;28;20046;-84
2022/12/02 11:44:22;;;;;;;26.88;16.65;;;7.90;64.90;;;;;;4988323;28;20522;-83
2022/12/02 11:46:59;;;;;;;26.02;16.10;;;7.90;65.00;;;;;;4971834;28;20029;-84
2022/12/02 11:49:41;;;;;;;26.10;16.83;;;7.90;65.10;;;;;;4990118;28;20045;-86
2022/12/02 11:52:13;;;;;;;26.27;15.80;;;7.90;64.90;;;;;;5003883;28;20565;-83
2022/12/02 11:54:52;;;;;;;26.45;15.77;;;7.90;64.90;;;;;;5003774;28;20137;-85
2022/12/02 11:57:49;;;;;;;27.13;16.15;;;7.90;65.00;;;;;;4981170;28;20168;-83
2022/12/02 12:00:30;;;;;;;30.90;17.50;;;7.90;65.10;;;;;;5002371;28;20041;-82
2022/12/02 12:03:16;;;;;;;25.88;16.27;;;7.90;66.10;;;;;;4972412;28;20037;-83
2022/12/02 12:06:07;;;;;;;25.02;15.05;;;7.90;66.70;;;;;;5003742;28;20654;-80
2022/12/02 12:08:33;;;;;;;27.27;15.70;;;7.90;67.10;;;;;;5004677;28;20041;-81
2022/12/02 12:11:17;;;;;;;25.40;15.20;;;7.90;67.90;;;;;;5003681;28;20477;-79
2022/12/02 12:13:57;;;;;;;28.35;16.42;;;7.90;66.60;;;;;;5002575;28;20525;-82
2022/12/02 12:16:23;;;;;;;26.02;16.60;;;8.00;66.00;;;;;;5003923;28;20052;-77
2022/12/02 12:18:49;;;;;;;28.25;16.80;;;7.90;65.60;;;;;;4972707;28;20458;-76
2022/12/02 12:21:31;;;;;;;31.15;17.58;;;8.00;65.20;;;;;;4985865;28;20033;-77
2022/12/02 12:24:19;;;;;;;34.25;18.25;;;7.90;64.90;;;;;;4986804;28;20068;-77
2022/12/02 12:27:09;;;;;;;28.38;17.20;;;7.90;64.60;;;;;;4987658;28;20046;-79
2022/12/02 12:29:37;;;;;;;31.77;17.60;;;7.90;64.50;;;;;;4984020;28;20045;-79
2022/12/02 12:32:05;;;;;;;32.75;17.75;;;8.00;64.40;;;;;;4983238;28;21271;-77
2022/12/02 12:34:31;;;;;;;29.15;17.90;;;7.90;64.30;;;;;;4967299;28;20045;-77
2022/12/02 12:36:57;;;;;;;31.52;17.50;;;7.90;64.90;;;;;;4984311;28;20445;-79
2022/12/02 12:39:23;;;;;;;27.10;17.45;;;7.90;64.60;;;;;;4996237;28;20034;-79
2022/12/02 12:41:49;;;;;;;29.75;18.02;;;7.90;65.00;;;;;;5001899;28;20599;-78
2022/12/02 12:44:15;;;;;;;31.90;17.38;;;7.90;65.40;;;;;;4989870;28;20094;-79
2022/12/02 12:46:41;;;;;;;33.13;18.60;;;7.90;65.30;;;;;;4989596;28;20061;-78
2022/12/02 12:49:08;;;;;;;28.77;17.25;;;7.90;65.20;;;;;;4989439;28;20038;-78